Time;durP1;ratioP1;P1;durP2;ratioP2;P2;SDS_P1;SDS_P2;PMS_P1;PMS_P2;Temp;Humidity;BMP_temperature;BMP_pressure;BME280_temperature;BME280_humidity;BME280_pressure;Samples;Min_cycle;Max_cycle;Signal;HPM_P1;HPM_P2
2022/09/18 00:01:23;;;;;;;17.03;4.57;;;10.00;99.90;;;;;;5052392;28;20460;-72
2022/09/18 00:03:50;;;;;;;19.53;4.73;;;10.00;99.90;;;;;;5052431;28;20485;-72
2022/09/18 00:06:19;;;;;;;5.70;3.97;;;10.10;99.90;;;;;;5052180;28;20476;-72
2022/09/18 00:08:51;;;;;;;9.90;3.93;;;10.10;99.90;;;;;;5052204;28;20453;-72
2022/09/18 00:11:18;;;;;;;9.87;3.80;;;10.10;99.90;;;;;;5051716;28;20475;-72
2022/09/18 00:13:45;;;;;;;7.67;3.30;;;10.10;99.90;;;;;;5052421;28;20463;-73
2022/09/18 00:16:14;;;;;;;17.53;4.13;;;10.10;99.90;;;;;;5051992;28;20502;-73
2022/09/18 00:18:41;;;;;;;7.20;3.53;;;10.10;99.90;;;;;;5052000;28;20456;-72
2022/09/18 00:21:09;;;;;;;8.53;4.70;;;10.10;99.90;;;;;;5051993;28;20507;-73
2022/09/18 00:23:37;;;;;;;12.13;3.63;;;10.10;99.90;;;;;;5052017;28;20509;-72
2022/09/18 00:26:06;;;;;;;16.20;3.53;;;10.00;99.90;;;;;;5051904;28;20944;-72
2022/09/18 00:28:33;;;;;;;9.30;3.97;;;10.00;99.90;;;;;;5048613;28;20459;-73
2022/09/18 00:31:04;;;;;;;7.50;3.63;;;10.00;99.90;;;;;;5051818;28;20507;-73
2022/09/18 00:33:31;;;;;;;8.40;3.53;;;10.00;99.90;;;;;;5052072;28;20548;-73
2022/09/18 00:36:00;;;;;;;7.23;3.83;;;9.90;99.90;;;;;;5052005;28;21125;-73
2022/09/18 00:38:28;;;;;;;8.13;4.20;;;9.90;99.90;;;;;;5051306;28;20450;-72
2022/09/18 00:40:55;;;;;;;6.50;3.93;;;9.90;99.90;;;;;;5052136;28;20479;-72
2022/09/18 00:43:25;;;;;;;11.47;3.40;;;9.90;99.90;;;;;;5051834;28;20519;-73
2022/09/18 00:45:55;;;;;;;8.30;3.30;;;9.90;99.90;;;;;;5051642;28;20822;-73
2022/09/18 00:48:24;;;;;;;8.23;3.77;;;9.90;99.90;;;;;;5052096;28;20961;-73
2022/09/18 00:50:52;;;;;;;6.30;3.60;;;9.90;99.90;;;;;;5051733;28;20830;-72
2022/09/18 00:53:18;;;;;;;8.90;3.60;;;9.90;99.90;;;;;;5051614;28;20843;-73
2022/09/18 00:55:45;;;;;;;4.90;3.33;;;9.90;99.90;;;;;;5051618;28;20451;-72
2022/09/18 00:58:12;;;;;;;5.07;3.20;;;9.90;99.90;;;;;;5051886;28;20456;-73
2022/09/18 01:00:40;;;;;;;8.63;3.70;;;9.90;99.90;;;;;;5051584;28;20493;-73
2022/09/18 01:03:07;;;;;;;6.13;3.33;;;9.80;99.90;;;;;;5051363;28;21059;-72
2022/09/18 01:05:46;;;;;;;7.07;3.00;;;9.80;99.90;;;;;;5051113;28;20539;-73
2022/09/18 01:08:28;;;;;;;9.33;3.27;;;9.80;99.90;;;;;;5048949;28;20506;-72
2022/09/18 01:11:09;;;;;;;6.17;2.80;;;9.80;99.90;;;;;;5051267;28;20533;-72
2022/09/18 01:13:43;;;;;;;4.70;3.20;;;9.80;99.90;;;;;;5049957;28;20456;-72
2022/09/18 01:16:21;;;;;;;8.13;3.33;;;9.80;99.90;;;;;;5051120;28;20456;-72
2022/09/18 01:18:56;;;;;;;11.50;3.60;;;9.80;99.90;;;;;;5051279;28;20511;-72
2022/09/18 01:21:30;;;;;;;6.57;3.40;;;9.80;99.90;;;;;;5051110;28;20456;-72
2022/09/18 01:24:27;;;;;;;6.53;3.33;;;9.80;99.90;;;;;;5050942;28;20570;-72
2022/09/18 01:26:57;;;;;;;6.30;3.20;;;9.80;99.90;;;;;;5050746;28;20504;-73
2022/09/18 01:29:33;;;;;;;7.60;3.20;;;9.80;99.90;;;;;;5051013;28;20449;-73
2022/09/18 01:32:06;;;;;;;7.13;3.43;;;9.80;99.90;;;;;;5050880;28;20453;-72
2022/09/18 01:34:37;;;;;;;9.20;3.30;;;9.90;99.90;;;;;;5050745;28;20552;-73
2022/09/18 01:37:10;;;;;;;6.50;3.07;;;9.90;99.90;;;;;;5051051;28;20910;-73
2022/09/18 01:39:42;;;;;;;9.67;3.37;;;9.90;99.90;;;;;;5051055;28;20874;-73
2022/09/18 01:42:12;;;;;;;4.70;3.23;;;9.90;99.90;;;;;;5051070;28;20457;-72
2022/09/18 01:44:43;;;;;;;5.33;3.40;;;9.90;99.90;;;;;;5050929;28;20484;-73
2022/09/18 01:47:13;;;;;;;9.43;3.20;;;9.90;99.90;;;;;;5050504;28;20960;-73
2022/09/18 01:49:45;;;;;;;6.63;3.20;;;10.00;99.90;;;;;;5051069;28;20445;-73
2022/09/18 01:52:18;;;;;;;5.60;3.10;;;10.00;99.90;;;;;;5050254;28;20979;-72
2022/09/18 01:54:50;;;;;;;15.33;3.90;;;10.00;99.90;;;;;;5050837;28;20542;-72
2022/09/18 01:57:21;;;;;;;4.13;2.80;;;10.00;99.90;;;;;;5050561;28;20851;-72
2022/09/18 01:59:54;;;;;;;9.17;3.00;;;10.00;99.90;;;;;;5051000;28;20460;-72
2022/09/18 02:02:27;;;;;;;9.17;3.30;;;10.00;99.90;;;;;;5050658;28;20456;-72
2022/09/18 02:04:58;;;;;;;4.23;3.17;;;10.00;99.90;;;;;;5050764;28;20489;-72
2022/09/18 02:07:30;;;;;;;13.03;3.17;;;10.00;99.90;;;;;;5050577;28;20553;-72
2022/09/18 02:09:57;;;;;;;4.87;2.90;;;10.00;99.90;;;;;;5049908;28;20488;-72
2022/09/18 02:12:26;;;;;;;4.53;2.80;;;10.00;99.90;;;;;;5050249;28;20961;-72
2022/09/18 02:14:59;;;;;;;6.63;2.97;;;10.00;99.90;;;;;;5050309;28;20546;-72
2022/09/18 02:17:31;;;;;;;2.87;2.67;;;10.00;99.90;;;;;;5050310;28;20487;-72
2022/09/18 02:20:00;;;;;;;6.43;2.70;;;10.10;99.90;;;;;;5050089;28;21027;-72
2022/09/18 02:22:31;;;;;;;2.90;2.27;;;10.10;99.90;;;;;;5049892;28;20882;-72
2022/09/18 02:25:00;;;;;;;4.70;2.53;;;10.10;99.90;;;;;;5049912;28;20589;-72
2022/09/18 02:27:28;;;;;;;7.17;2.77;;;10.10;99.90;;;;;;5049983;28;20981;-72
2022/09/18 02:29:58;;;;;;;5.67;2.80;;;10.00;99.90;;;;;;5050048;28;20456;-72
2022/09/18 02:32:24;;;;;;;3.77;2.10;;;10.00;99.90;;;;;;5050329;28;20530;-72
2022/09/18 02:34:51;;;;;;;2.30;2.10;;;10.00;99.90;;;;;;5049575;28;20988;-72
2022/09/18 02:37:28;;;;;;;2.50;2.30;;;10.10;99.90;;;;;;5049985;28;20454;-72
2022/09/18 02:40:06;;;;;;;5.03;2.20;;;10.00;99.90;;;;;;5050390;28;20458;-72
2022/09/18 02:42:41;;;;;;;3.90;2.33;;;10.10;99.90;;;;;;5050050;28;20464;-72
2022/09/18 02:45:16;;;;;;;6.50;2.50;;;10.10;99.90;;;;;;5047772;28;20555;-73
2022/09/18 02:47:57;;;;;;;2.83;2.27;;;10.10;99.90;;;;;;5050037;28;20460;-73
2022/09/18 02:50:31;;;;;;;2.30;2.10;;;10.10;99.90;;;;;;5049490;28;20510;-73
2022/09/18 02:53:04;;;;;;;4.20;2.20;;;10.10;99.90;;;;;;5049994;28;20482;-73
2022/09/18 02:55:40;;;;;;;2.40;2.20;;;10.10;99.90;;;;;;5049909;28;20441;-73
2022/09/18 02:58:14;;;;;;;2.10;1.97;;;10.10;99.90;;;;;;5050039;28;20936;-73
2022/09/18 03:00:44;;;;;;;3.23;1.90;;;10.10;99.90;;;;;;5050345;28;20965;-73
2022/09/18 03:03:12;;;;;;;1.93;1.80;;;10.10;99.90;;;;;;5052564;28;20487;-72
2022/09/18 03:05:39;;;;;;;4.30;1.80;;;10.10;99.90;;;;;;5053713;28;20526;-73
2022/09/18 03:08:06;;;;;;;2.20;2.00;;;10.10;99.90;;;;;;5053905;28;20893;-72
2022/09/18 03:10:33;;;;;;;2.90;1.90;;;10.10;99.90;;;;;;5053978;28;20445;-72
2022/09/18 03:13:00;;;;;;;3.57;2.33;;;10.10;99.90;;;;;;5054007;28;20480;-73
2022/09/18 03:15:26;;;;;;;3.20;1.97;;;10.10;99.90;;;;;;5053634;28;21160;-73
2022/09/18 03:17:54;;;;;;;2.30;2.10;;;10.10;99.90;;;;;;5053848;28;20445;-72
2022/09/18 03:20:21;;;;;;;1.70;1.60;;;10.10;99.90;;;;;;5053527;28;20506;-73
2022/09/18 03:22:48;;;;;;;2.07;1.87;;;10.10;99.90;;;;;;5053232;28;21014;-72
2022/09/18 03:25:15;;;;;;;2.30;2.10;;;10.10;99.90;;;;;;5053301;28;20974;-72
2022/09/18 03:27:42;;;;;;;2.63;1.70;;;10.00;99.90;;;;;;5053325;28;20452;-72
2022/09/18 03:30:09;;;;;;;2.13;1.80;;;10.00;99.90;;;;;;5053014;28;20946;-73
2022/09/18 03:32:36;;;;;;;2.60;1.73;;;10.00;99.90;;;;;;5052991;28;20834;-72
2022/09/18 03:35:05;;;;;;;1.90;1.80;;;10.00;99.90;;;;;;5053078;28;20467;-72
2022/09/18 03:37:31;;;;;;;3.40;1.90;;;10.00;99.90;;;;;;5052738;28;20945;-73
2022/09/18 03:39:58;;;;;;;4.20;1.90;;;10.00;99.90;;;;;;5053040;28;20472;-73
2022/09/18 03:42:24;;;;;;;2.03;1.83;;;10.00;99.90;;;;;;5052915;28;20503;-73
2022/09/18 03:44:51;;;;;;;2.80;1.90;;;10.00;99.90;;;;;;5052970;28;20855;-73
2022/09/18 03:47:18;;;;;;;2.57;2.07;;;10.00;99.90;;;;;;5052383;28;20466;-73
2022/09/18 03:49:44;;;;;;;4.70;1.70;;;9.90;99.90;;;;;;5052526;28;20509;-72
2022/09/18 03:52:13;;;;;;;2.80;2.17;;;9.90;99.90;;;;;;5052730;28;20500;-72
2022/09/18 03:54:39;;;;;;;2.60;1.93;;;9.90;99.90;;;;;;5052679;28;20469;-72
2022/09/18 03:57:06;;;;;;;2.70;2.50;;;9.90;99.90;;;;;;5052495;28;20517;-72
2022/09/18 03:59:33;;;;;;;4.77;2.10;;;9.90;99.90;;;;;;5052620;28;21018;-72
2022/09/18 04:02:00;;;;;;;6.83;2.87;;;9.90;99.90;;;;;;5052051;28;20869;-72
2022/09/18 04:04:26;;;;;;;3.53;2.70;;;9.90;99.90;;;;;;5052048;28;20552;-72
2022/09/18 04:06:53;;;;;;;4.00;2.77;;;9.90;99.90;;;;;;5052518;28;20867;-72
2022/09/18 04:09:21;;;;;;;3.30;2.30;;;9.90;99.90;;;;;;5052642;28;20456;-72
2022/09/18 04:11:47;;;;;;;8.07;2.93;;;9.90;99.90;;;;;;5051967;28;21101;-73
2022/09/18 04:14:14;;;;;;;3.03;2.73;;;10.00;99.90;;;;;;5051786;28;20473;-72
2022/09/18 04:16:41;;;;;;;8.27;3.03;;;10.00;99.90;;;;;;5051979;28;20445;-72
2022/09/18 04:19:08;;;;;;;16.53;3.20;;;10.00;99.90;;;;;;5052183;28;20467;-72
2022/09/18 04:21:34;;;;;;;6.17;3.33;;;10.00;99.90;;;;;;5052067;28;20487;-72
2022/09/18 04:24:01;;;;;;;11.10;2.97;;;10.00;99.90;;;;;;5048478;28;20476;-72
2022/09/18 04:26:29;;;;;;;4.30;2.90;;;10.00;99.90;;;;;;5051699;28;21074;-72
2022/09/18 04:28:56;;;;;;;7.30;3.00;;;10.00;99.90;;;;;;5051936;28;20511;-72
2022/09/18 04:31:22;;;;;;;4.17;2.67;;;10.00;99.90;;;;;;5051963;28;20445;-73
2022/09/18 04:33:49;;;;;;;6.33;2.87;;;10.00;99.90;;;;;;5051991;28;20467;-72
2022/09/18 04:36:16;;;;;;;4.70;2.87;;;10.00;99.90;;;;;;5052132;28;20455;-72
2022/09/18 04:38:42;;;;;;;6.83;3.10;;;10.00;99.90;;;;;;5052240;28;20513;-72
2022/09/18 04:41:09;;;;;;;4.90;2.50;;;10.00;99.90;;;;;;5052264;28;20503;-72
2022/09/18 04:43:37;;;;;;;3.60;2.53;;;10.00;99.90;;;;;;5052024;28;20525;-73
2022/09/18 04:46:04;;;;;;;4.73;2.50;;;10.10;99.90;;;;;;5051779;28;21080;-73
2022/09/18 04:48:30;;;;;;;6.40;2.27;;;10.00;99.90;;;;;;5052015;28;21043;-72
2022/09/18 04:50:57;;;;;;;6.57;2.90;;;10.00;99.90;;;;;;5051901;28;20449;-72
2022/09/18 04:53:23;;;;;;;3.10;2.60;;;10.10;99.90;;;;;;5051478;28;20906;-72
2022/09/18 04:55:50;;;;;;;4.30;3.10;;;10.00;99.90;;;;;;5051459;28;21003;-73
2022/09/18 04:58:19;;;;;;;3.50;2.80;;;10.00;99.90;;;;;;5051633;28;20913;-72
2022/09/18 05:00:50;;;;;;;3.93;2.50;;;10.10;99.90;;;;;;5049509;28;20460;-72
2022/09/18 05:03:18;;;;;;;7.63;2.80;;;10.00;99.90;;;;;;5049395;28;20493;-73
2022/09/18 05:05:44;;;;;;;8.50;2.67;;;10.00;99.90;;;;;;5051149;28;20481;-73
2022/09/18 05:08:11;;;;;;;6.73;2.70;;;10.10;99.90;;;;;;5051116;28;20560;-72
2022/09/18 05:10:38;;;;;;;3.83;2.73;;;10.10;99.90;;;;;;5051133;28;20460;-72
2022/09/18 05:13:05;;;;;;;5.13;2.77;;;10.10;99.90;;;;;;5050626;28;20504;-73
2022/09/18 05:15:32;;;;;;;8.37;3.40;;;10.10;99.90;;;;;;5051012;28;20489;-72
2022/09/18 05:18:02;;;;;;;6.67;2.53;;;10.10;99.90;;;;;;5050237;28;20486;-73
2022/09/18 05:20:29;;;;;;;5.97;2.50;;;10.10;99.90;;;;;;5050295;28;20482;-72
2022/09/18 05:22:56;;;;;;;8.03;2.40;;;10.10;99.90;;;;;;5050089;28;20465;-72
2022/09/18 05:25:26;;;;;;;2.63;2.40;;;10.10;99.90;;;;;;5049295;28;20480;-72
2022/09/18 05:27:56;;;;;;;2.90;2.20;;;10.10;99.90;;;;;;5049844;28;20457;-71
2022/09/18 05:30:24;;;;;;;5.27;2.57;;;10.10;99.90;;;;;;5049242;28;20445;-71
2022/09/18 05:32:55;;;;;;;4.13;2.30;;;10.10;99.90;;;;;;5050182;28;20457;-71
2022/09/18 05:35:23;;;;;;;6.57;2.53;;;10.10;99.90;;;;;;5049731;28;21015;-72
2022/09/18 05:37:50;;;;;;;7.37;2.93;;;10.10;99.90;;;;;;5049913;28;20977;-72
2022/09/18 05:40:17;;;;;;;6.53;2.60;;;10.20;99.90;;;;;;5049271;28;20811;-72
2022/09/18 05:42:47;;;;;;;4.50;2.17;;;10.20;99.90;;;;;;5049720;28;20546;-72
2022/09/18 05:45:14;;;;;;;6.97;2.70;;;10.20;99.90;;;;;;5049565;28;20484;-70
2022/09/18 05:47:41;;;;;;;8.97;2.47;;;10.20;99.90;;;;;;5049504;28;20456;-70
2022/09/18 05:50:09;;;;;;;4.80;2.43;;;10.20;99.90;;;;;;5049831;28;20445;-70
2022/09/18 05:52:37;;;;;;;5.87;3.00;;;10.20;99.90;;;;;;5049993;28;20964;-70
2022/09/18 05:55:04;;;;;;;6.27;2.17;;;10.20;99.90;;;;;;5049811;28;20471;-70
2022/09/18 05:57:31;;;;;;;4.77;2.33;;;10.20;99.90;;;;;;5046062;28;20450;-70
2022/09/18 05:59:57;;;;;;;4.60;2.30;;;10.30;99.90;;;;;;5049698;28;20472;-71
2022/09/18 06:02:24;;;;;;;4.83;2.20;;;10.30;99.90;;;;;;5049521;28;21046;-72
2022/09/18 06:04:51;;;;;;;4.70;2.40;;;10.30;99.90;;;;;;5049745;28;20525;-72
2022/09/18 06:07:17;;;;;;;7.50;2.40;;;10.30;99.90;;;;;;5049535;28;20495;-73
2022/09/18 06:09:45;;;;;;;4.97;2.10;;;10.30;99.90;;;;;;5049958;28;20452;-74
2022/09/18 06:12:12;;;;;;;4.47;2.20;;;10.30;99.90;;;;;;5049917;28;20502;-73
2022/09/18 06:14:38;;;;;;;7.77;2.30;;;10.30;99.90;;;;;;5050072;28;20898;-73
2022/09/18 06:17:05;;;;;;;10.20;2.40;;;10.40;99.90;;;;;;5049637;28;20519;-73
2022/09/18 06:19:33;;;;;;;6.00;2.23;;;10.40;99.90;;;;;;5050198;28;20459;-73
2022/09/18 06:22:00;;;;;;;4.97;1.90;;;10.40;99.90;;;;;;5049749;28;20540;-72
2022/09/18 06:24:26;;;;;;;8.33;2.23;;;10.40;99.90;;;;;;5050036;28;20480;-72
2022/09/18 06:26:54;;;;;;;6.00;2.53;;;10.40;99.90;;;;;;5049799;28;20512;-73
2022/09/18 06:29:21;;;;;;;2.47;2.00;;;10.40;99.90;;;;;;5050032;28;20525;-73
2022/09/18 06:31:48;;;;;;;4.63;1.90;;;10.40;99.90;;;;;;5049590;28;20456;-74
2022/09/18 06:34:14;;;;;;;6.40;2.00;;;10.50;99.90;;;;;;5049694;28;20468;-73
2022/09/18 06:36:42;;;;;;;3.60;1.87;;;10.50;99.90;;;;;;5049210;28;20500;-72
2022/09/18 06:39:09;;;;;;;10.43;2.87;;;10.50;99.90;;;;;;5053467;28;20449;-71
2022/09/18 06:41:35;;;;;;;4.23;2.07;;;10.50;99.90;;;;;;5053483;28;20523;-74
2022/09/18 06:44:03;;;;;;;5.57;1.97;;;10.60;99.90;;;;;;5049391;28;20479;-73
2022/09/18 06:46:30;;;;;;;4.63;1.73;;;10.60;99.90;;;;;;5052322;28;20484;-72
2022/09/18 06:48:57;;;;;;;2.90;1.70;;;10.70;99.90;;;;;;5053178;28;20441;-72
2022/09/18 06:51:23;;;;;;;6.60;1.93;;;10.70;99.90;;;;;;5053350;28;20468;-73
2022/09/18 06:53:50;;;;;;;3.40;1.80;;;10.80;99.90;;;;;;5053061;28;20473;-73
2022/09/18 06:56:16;;;;;;;4.30;1.80;;;10.80;99.90;;;;;;5056035;28;21085;-72
2022/09/18 06:58:44;;;;;;;3.30;1.83;;;10.80;99.90;;;;;;5057060;28;20453;-71
2022/09/18 07:01:12;;;;;;;4.40;1.80;;;10.80;99.90;;;;;;5054376;28;20947;-72
2022/09/18 07:03:38;;;;;;;2.67;1.83;;;10.80;99.90;;;;;;5052534;28;20469;-73
2022/09/18 07:06:08;;;;;;;2.53;1.60;;;10.80;99.90;;;;;;5052976;28;20484;-73
2022/09/18 07:08:35;;;;;;;7.33;1.90;;;10.70;99.90;;;;;;5050156;28;20524;-72
2022/09/18 07:11:02;;;;;;;4.03;1.70;;;10.70;99.90;;;;;;5049811;28;20461;-72
2022/09/18 07:13:30;;;;;;;1.70;1.60;;;10.70;99.90;;;;;;5053087;28;20480;-73
2022/09/18 07:15:57;;;;;;;5.70;2.00;;;10.70;99.90;;;;;;5052505;28;20467;-73
2022/09/18 07:18:25;;;;;;;2.70;1.80;;;10.70;99.90;;;;;;5053110;28;20859;-73
2022/09/18 07:20:52;;;;;;;3.93;2.33;;;10.70;99.90;;;;;;5052951;28;20849;-73
2022/09/18 07:23:19;;;;;;;2.27;1.87;;;10.70;99.90;;;;;;5052694;28;20485;-72
2022/09/18 07:25:46;;;;;;;2.90;2.00;;;10.70;99.90;;;;;;5052681;28;20538;-73
2022/09/18 07:28:13;;;;;;;4.70;1.87;;;10.70;99.90;;;;;;5052970;28;20453;-71
2022/09/18 07:30:40;;;;;;;3.43;1.90;;;10.80;99.90;;;;;;5052373;28;20972;-73
2022/09/18 07:33:08;;;;;;;4.27;2.07;;;10.80;99.90;;;;;;5052758;28;21149;-73
2022/09/18 07:35:36;;;;;;;5.80;1.97;;;10.80;99.90;;;;;;5052965;28;20449;-73
2022/09/18 07:38:06;;;;;;;6.30;2.10;;;10.80;99.90;;;;;;5049288;28;20499;-73
2022/09/18 07:40:33;;;;;;;12.03;2.83;;;10.80;99.90;;;;;;5048869;28;20453;-73
2022/09/18 07:43:00;;;;;;;2.77;2.00;;;10.70;99.90;;;;;;5052266;28;21024;-74
2022/09/18 07:45:27;;;;;;;1.90;1.80;;;10.80;99.90;;;;;;5051735;28;20514;-74
2022/09/18 07:47:54;;;;;;;3.70;1.90;;;10.70;99.90;;;;;;5051678;28;21221;-73
2022/09/18 07:50:21;;;;;;;2.90;1.87;;;10.70;99.90;;;;;;5051192;28;20451;-73
2022/09/18 07:52:51;;;;;;;2.70;1.50;;;10.70;99.90;;;;;;5051893;28;20453;-74
2022/09/18 07:55:19;;;;;;;3.20;1.70;;;10.70;99.90;;;;;;5051770;28;20442;-73
2022/09/18 07:57:46;;;;;;;3.30;1.63;;;10.70;99.90;;;;;;5051819;28;20463;-73
2022/09/18 08:00:14;;;;;;;2.40;1.80;;;10.70;99.90;;;;;;5051646;28;20456;-73
2022/09/18 08:02:40;;;;;;;3.70;2.10;;;10.70;99.90;;;;;;5051894;28;20452;-74
2022/09/18 08:05:08;;;;;;;2.40;2.20;;;10.70;99.90;;;;;;5051778;28;20502;-74
2022/09/18 08:07:34;;;;;;;2.70;1.50;;;10.80;99.90;;;;;;5052051;28;20512;-74
2022/09/18 08:10:03;;;;;;;1.80;1.70;;;10.70;99.90;;;;;;5050037;28;20514;-74
2022/09/18 08:12:30;;;;;;;4.97;1.70;;;10.80;99.90;;;;;;5051955;28;20511;-75
2022/09/18 08:14:57;;;;;;;3.10;1.90;;;10.70;99.90;;;;;;5051456;28;21083;-74
2022/09/18 08:17:24;;;;;;;1.80;1.70;;;10.70;99.90;;;;;;5052784;28;20472;-74
2022/09/18 08:19:50;;;;;;;2.43;1.60;;;10.70;99.90;;;;;;5051360;28;20511;-75
2022/09/18 08:22:17;;;;;;;8.80;2.47;;;10.70;99.90;;;;;;5049582;28;20482;-74
2022/09/18 08:24:44;;;;;;;2.27;1.77;;;10.80;99.90;;;;;;5050621;28;20465;-74
2022/09/18 08:27:12;;;;;;;2.33;1.60;;;10.70;99.90;;;;;;5050770;28;20492;-73
2022/09/18 08:29:38;;;;;;;1.60;1.50;;;10.70;99.90;;;;;;5051271;28;21026;-73
2022/09/18 08:32:05;;;;;;;2.60;1.50;;;10.80;99.90;;;;;;5051341;28;20481;-74
2022/09/18 08:34:32;;;;;;;1.87;1.50;;;10.70;99.90;;;;;;5051278;28;20473;-73
2022/09/18 08:36:59;;;;;;;3.87;1.77;;;10.70;99.90;;;;;;5051061;28;20451;-74
2022/09/18 08:39:25;;;;;;;1.40;1.30;;;10.70;99.90;;;;;;5050841;28;20511;-74
2022/09/18 08:42:10;;;;;;;2.03;1.60;;;10.70;99.90;;;;;;5051163;28;21045;-74
2022/09/18 08:44:46;;;;;;;3.43;1.80;;;10.80;99.90;;;;;;5049145;28;20473;-74
2022/09/18 08:47:19;;;;;;;2.10;1.80;;;10.80;99.90;;;;;;5050830;28;20480;-74
2022/09/18 08:49:50;;;;;;;1.80;1.70;;;10.90;99.90;;;;;;5050924;28;20465;-74
2022/09/18 08:52:20;;;;;;;1.87;1.77;;;10.90;99.90;;;;;;5051026;28;20523;-74
2022/09/18 08:54:51;;;;;;;1.70;1.60;;;11.00;99.90;;;;;;5050978;28;20560;-74
2022/09/18 08:57:21;;;;;;;3.10;2.00;;;11.10;99.90;;;;;;5051459;28;20453;-74
2022/09/18 08:59:55;;;;;;;2.27;2.07;;;11.10;99.90;;;;;;5050789;28;20452;-74
2022/09/18 09:02:32;;;;;;;2.53;1.50;;;11.20;99.90;;;;;;5050727;28;20458;-74
2022/09/18 09:05:03;;;;;;;1.73;1.60;;;11.30;99.90;;;;;;5051025;28;20473;-74
2022/09/18 09:07:53;;;;;;;1.67;1.50;;;11.30;99.90;;;;;;5046856;28;20487;-74
2022/09/18 09:10:40;;;;;;;1.73;1.63;;;11.40;99.90;;;;;;5050561;28;20449;-73
2022/09/18 09:13:43;;;;;;;3.30;1.77;;;11.40;99.90;;;;;;5050906;28;20527;-74
2022/09/18 09:16:15;;;;;;;2.00;1.90;;;11.40;99.90;;;;;;5034910;28;20601;-73
2022/09/18 09:18:57;;;;;;;2.13;2.03;;;11.50;99.90;;;;;;5050162;28;20470;-74
2022/09/18 09:21:29;;;;;;;3.10;1.63;;;11.60;99.90;;;;;;5050526;28;20465;-74
2022/09/18 09:24:12;;;;;;;2.57;2.00;;;11.70;99.90;;;;;;5050439;28;20479;-74
2022/09/18 09:26:40;;;;;;;2.53;1.80;;;11.80;99.90;;;;;;5049561;28;20567;-74
2022/09/18 09:29:15;;;;;;;1.93;1.70;;;11.80;99.90;;;;;;5050344;28;20499;-74
2022/09/18 09:31:46;;;;;;;2.57;1.60;;;11.80;99.90;;;;;;5049258;28;20454;-74
2022/09/18 09:34:19;;;;;;;2.53;1.70;;;11.70;99.90;;;;;;5049977;28;20891;-74
2022/09/18 09:36:49;;;;;;;2.00;1.80;;;11.70;99.90;;;;;;5049878;28;20939;-75
2022/09/18 09:39:22;;;;;;;5.87;2.00;;;11.70;99.90;;;;;;5050096;28;20444;-74
2022/09/18 09:41:54;;;;;;;3.03;1.90;;;11.70;99.90;;;;;;5049672;28;20444;-75
2022/09/18 09:44:30;;;;;;;4.70;2.10;;;11.80;99.90;;;;;;5049827;28;20706;-74
2022/09/18 09:47:27;;;;;;;6.67;2.90;;;11.90;99.90;;;;;;5049698;28;20568;-73
2022/09/18 09:50:05;;;;;;;2.27;2.00;;;11.90;99.90;;;;;;5049977;28;20536;-73
2022/09/18 09:52:33;;;;;;;2.47;1.90;;;11.90;99.90;;;;;;5049698;28;21155;-74
2022/09/18 09:55:08;;;;;;;4.57;2.03;;;11.80;99.90;;;;;;5049902;28;20534;-73
2022/09/18 09:57:39;;;;;;;2.40;2.20;;;11.80;99.90;;;;;;5049764;28;20536;-74
2022/09/18 10:00:13;;;;;;;9.97;3.70;;;11.80;99.90;;;;;;5046411;28;20957;-73
2022/09/18 10:03:04;;;;;;;3.30;2.13;;;11.80;99.90;;;;;;5047001;28;20531;-74
2022/09/18 10:05:38;;;;;;;2.20;2.10;;;11.90;99.90;;;;;;5046063;28;20500;-72
2022/09/18 10:08:14;;;;;;;5.43;2.40;;;12.20;99.90;;;;;;5046461;28;20486;-73
2022/09/18 10:10:45;;;;;;;3.40;1.83;;;12.40;99.90;;;;;;5047307;28;21061;-72
2022/09/18 10:13:16;;;;;;;8.63;2.33;;;12.60;99.90;;;;;;5048910;28;20477;-72
2022/09/18 10:15:45;;;;;;;2.23;2.03;;;12.40;99.90;;;;;;5049342;28;20503;-72
2022/09/18 10:18:18;;;;;;;2.40;2.20;;;12.40;99.90;;;;;;5049497;28;20502;-73
2022/09/18 10:20:46;;;;;;;3.40;1.90;;;12.30;99.90;;;;;;5049471;28;20446;-72
2022/09/18 10:23:21;;;;;;;3.97;2.20;;;12.20;99.90;;;;;;5049079;28;20466;-72
2022/09/18 10:25:52;;;;;;;3.37;2.23;;;12.20;99.90;;;;;;5048778;28;20453;-74
2022/09/18 10:28:20;;;;;;;2.00;1.83;;;12.10;99.90;;;;;;5049963;28;20546;-73
2022/09/18 10:30:56;;;;;;;4.33;2.07;;;12.00;99.90;;;;;;5049796;28;20826;-73
2022/09/18 10:33:36;;;;;;;3.33;2.03;;;12.10;99.90;;;;;;5049824;28;20479;-73
2022/09/18 10:36:11;;;;;;;2.27;2.17;;;12.00;99.90;;;;;;5045785;28;20996;-73
2022/09/18 10:38:38;;;;;;;4.90;2.20;;;12.00;99.90;;;;;;5049957;28;20509;-73
2022/09/18 10:41:17;;;;;;;2.60;2.40;;;12.00;99.90;;;;;;5049308;28;20457;-73
2022/09/18 10:43:57;;;;;;;2.10;2.00;;;12.00;99.90;;;;;;5046912;28;20526;-73
2022/09/18 10:46:26;;;;;;;4.23;2.33;;;12.10;99.90;;;;;;5048645;28;20462;-72
2022/09/18 10:48:54;;;;;;;4.47;2.03;;;12.20;99.90;;;;;;5049361;28;20564;-72
2022/09/18 10:51:24;;;;;;;4.23;2.30;;;12.20;99.90;;;;;;5049282;28;20464;-73
2022/09/18 10:54:02;;;;;;;2.67;2.17;;;12.30;99.90;;;;;;5048837;28;20469;-73
2022/09/18 10:56:28;;;;;;;5.23;2.50;;;12.40;99.90;;;;;;5048949;28;20979;-73
2022/09/18 10:58:56;;;;;;;2.07;1.90;;;12.40;99.90;;;;;;5049011;28;21012;-73
2022/09/18 11:01:24;;;;;;;2.27;2.00;;;12.60;99.90;;;;;;5048062;28;20449;-73
2022/09/18 11:04:01;;;;;;;4.80;2.50;;;12.70;99.90;;;;;;5049126;28;20523;-73
2022/09/18 11:06:31;;;;;;;3.73;2.43;;;12.80;99.90;;;;;;5048587;28;20457;-73
2022/09/18 11:09:01;;;;;;;4.90;3.23;;;13.00;99.90;;;;;;5049167;28;20459;-74
2022/09/18 11:11:30;;;;;;;3.73;2.07;;;13.10;99.90;;;;;;5048851;28;20498;-74
2022/09/18 11:13:59;;;;;;;4.40;2.07;;;13.20;99.90;;;;;;5049534;28;20491;-73
2022/09/18 11:16:28;;;;;;;4.10;1.97;;;13.20;99.90;;;;;;5048227;28;20926;-74
2022/09/18 11:19:16;;;;;;;3.10;1.87;;;13.30;99.90;;;;;;5049298;28;20452;-72
2022/09/18 11:21:48;;;;;;;2.60;2.30;;;13.20;99.90;;;;;;5046289;28;20961;-73
2022/09/18 11:24:23;;;;;;;4.70;1.80;;;13.10;99.90;;;;;;5049821;28;20526;-72
2022/09/18 11:26:51;;;;;;;3.83;2.30;;;13.10;99.90;;;;;;5052388;28;20992;-72
2022/09/18 11:29:22;;;;;;;2.90;2.10;;;13.00;99.90;;;;;;5052906;28;20508;-72
2022/09/18 11:31:53;;;;;;;2.27;2.13;;;12.90;99.90;;;;;;5052527;28;20451;-73
2022/09/18 11:34:25;;;;;;;3.33;1.90;;;12.90;99.90;;;;;;5052673;28;21067;-74
2022/09/18 11:36:55;;;;;;;2.40;2.20;;;12.90;99.90;;;;;;5052801;28;20450;-73
2022/09/18 11:39:27;;;;;;;3.97;1.90;;;12.80;99.90;;;;;;5052505;28;20460;-73
2022/09/18 11:41:54;;;;;;;1.97;1.60;;;12.80;99.90;;;;;;5052584;28;20717;-73
2022/09/18 11:44:25;;;;;;;3.73;2.03;;;12.80;99.90;;;;;;5052664;28;20568;-73
2022/09/18 11:47:09;;;;;;;2.57;2.37;;;12.80;99.90;;;;;;5051865;28;20813;-73
2022/09/18 11:49:42;;;;;;;2.70;2.00;;;12.80;99.90;;;;;;5052709;28;20453;-73
2022/09/18 11:52:16;;;;;;;2.13;1.90;;;12.70;99.90;;;;;;5049373;28;20949;-75
2022/09/18 11:54:50;;;;;;;2.13;1.93;;;12.60;99.90;;;;;;5050233;28;20913;-74
2022/09/18 11:57:21;;;;;;;2.77;2.00;;;12.40;99.90;;;;;;5051818;28;20445;-74
2022/09/18 11:59:55;;;;;;;2.63;1.93;;;12.30;99.90;;;;;;5051987;28;20472;-74
2022/09/18 12:02:30;;;;;;;5.10;2.20;;;12.20;99.90;;;;;;5051676;28;20453;-74
2022/09/18 12:05:06;;;;;;;2.60;2.43;;;12.20;99.90;;;;;;5051862;28;20472;-74
2022/09/18 12:07:37;;;;;;;4.50;2.03;;;12.30;99.90;;;;;;5051636;28;20637;-74
2022/09/18 12:10:13;;;;;;;2.20;2.00;;;12.40;99.90;;;;;;5048152;28;20510;-75
2022/09/18 12:12:44;;;;;;;2.33;2.13;;;12.40;99.90;;;;;;5051188;28;21240;-73
2022/09/18 12:15:17;;;;;;;2.60;2.40;;;12.40;99.90;;;;;;5051465;28;20478;-74
2022/09/18 12:17:48;;;;;;;2.23;2.03;;;12.50;99.90;;;;;;5051340;28;20468;-73
2022/09/18 12:20:22;;;;;;;2.23;2.10;;;12.60;99.90;;;;;;5051342;28;20449;-73
2022/09/18 12:22:53;;;;;;;3.47;2.40;;;12.50;99.90;;;;;;5049999;28;20452;-72
2022/09/18 12:25:25;;;;;;;2.40;2.30;;;12.40;99.90;;;;;;5051452;28;20835;-71
2022/09/18 12:27:58;;;;;;;3.37;2.60;;;12.30;99.90;;;;;;5050252;28;21001;-72
2022/09/18 12:30:35;;;;;;;2.70;2.50;;;12.30;99.90;;;;;;5051202;28;20895;-72
2022/09/18 12:33:24;;;;;;;2.77;2.57;;;12.30;99.90;;;;;;5051295;28;20989;-73
2022/09/18 12:36:22;;;;;;;3.80;2.43;;;12.30;99.90;;;;;;5050830;28;20512;-73
2022/09/18 12:38:59;;;;;;;2.63;2.07;;;12.30;99.90;;;;;;5025651;28;20456;-73
2022/09/18 12:41:44;;;;;;;2.40;2.10;;;12.40;99.90;;;;;;5050965;28;20461;-73
2022/09/18 12:44:40;;;;;;;2.43;2.17;;;12.60;99.90;;;;;;5051109;28;20473;-73
2022/09/18 12:47:26;;;;;;;2.80;2.00;;;12.70;99.90;;;;;;5049395;28;20457;-74
2022/09/18 12:50:07;;;;;;;3.10;2.00;;;12.90;99.90;;;;;;5050986;28;20869;-73
2022/09/18 12:52:47;;;;;;;2.03;1.93;;;13.00;99.90;;;;;;5050842;28;20535;-73
2022/09/18 12:55:36;;;;;;;2.30;2.10;;;12.90;99.90;;;;;;5048494;28;20453;-73
2022/09/18 12:58:12;;;;;;;2.60;1.93;;;12.90;99.90;;;;;;5047521;28;20441;-72
2022/09/18 13:00:40;;;;;;;3.53;2.00;;;13.00;99.90;;;;;;5048438;28;20475;-73
2022/09/18 13:03:15;;;;;;;2.80;2.00;;;13.20;99.90;;;;;;5050362;28;21026;-73
2022/09/18 13:05:45;;;;;;;6.37;2.10;;;13.10;99.90;;;;;;5050456;28;20444;-73